createdAt,value
2018-08-16T11:21:43.893Z,56.38
2018-08-16T11:22:43.869Z,54.95
2018-08-16T11:23:43.866Z,54.11
2018-08-16T11:24:43.845Z,54.41
2018-08-16T11:25:43.830Z,54.93
2018-08-16T11:26:43.822Z,54.85
2018-08-16T11:27:43.828Z,53.00
2018-08-16T11:28:43.796Z,53.22
2018-08-16T11:29:43.786Z,52.93
2018-08-16T11:30:43.775Z,52.86
2018-08-16T11:31:43.764Z,51.59
2018-08-16T11:32:43.758Z,51.81
2018-08-16T11:33:43.753Z,51.05
2018-08-16T11:34:43.732Z,50.51
2018-08-16T11:35:43.724Z,51.49
2018-08-16T11:36:43.712Z,52.47
2018-08-16T11:37:43.720Z,51.22
2018-08-16T11:38:43.703Z,50.37
2018-08-16T11:39:43.685Z,49.80
2018-08-16T11:40:43.724Z,47.74
2018-08-16T11:41:43.665Z,47.25
2018-08-16T11:42:43.658Z,48.68
2018-08-16T11:43:43.668Z,48.16
2018-08-16T11:44:43.641Z,49.46
2018-08-16T11:45:43.627Z,47.99
2018-08-16T11:46:43.649Z,47.72
2018-08-16T11:47:43.609Z,45.95
2018-08-16T11:48:43.602Z,47.52
2018-08-16T11:49:43.603Z,46.49
2018-08-16T11:50:43.584Z,47.75
2018-08-16T11:51:43.571Z,49.73
2018-08-16T11:52:43.569Z,49.75
2018-08-16T11:53:43.554Z,50.10
2018-08-16T11:54:43.561Z,50.24
2018-08-16T11:55:43.537Z,49.65
2018-08-16T11:56:43.530Z,49.70
2018-08-16T11:57:43.522Z,47.77
2018-08-16T11:58:43.540Z,48.75
2018-08-16T11:59:43.522Z,49.04
2018-08-16T12:00:43.494Z,49.09
2018-08-16T12:01:43.485Z,47.45
2018-08-16T12:02:43.480Z,48.21
2018-08-16T12:03:43.467Z,46.89
2018-08-16T12:04:43.462Z,48.99
2018-08-16T12:05:43.459Z,50.54
2018-08-16T12:06:43.442Z,51.78
2018-08-16T12:07:43.434Z,51.63
2018-08-16T12:08:43.428Z,51.98
2018-08-16T12:09:43.416Z,50.02
2018-08-16T12:10:43.419Z,49.60
2018-08-16T12:11:43.401Z,47.18
2018-08-16T12:12:43.392Z,45.86
2018-08-16T12:13:43.384Z,47.16
2018-08-16T12:14:43.402Z,45.73
2018-08-16T12:15:43.389Z,45.32
2018-08-16T12:16:43.361Z,45.40
2018-08-16T12:17:43.352Z,46.79
2018-08-16T12:18:43.342Z,46.23
2018-08-16T12:19:43.332Z,45.93
2018-08-16T12:20:43.329Z,45.37
2018-08-16T12:21:43.329Z,46.44
2018-08-16T12:22:43.311Z,46.69
2018-08-16T12:23:43.299Z,47.74
2018-08-16T12:24:43.293Z,45.98
2018-08-16T12:25:43.282Z,43.74
2018-08-16T12:26:43.296Z,44.53
2018-08-16T12:27:43.265Z,43.86
2018-08-16T12:28:43.258Z,44.96
2018-08-16T12:29:43.250Z,44.96
2018-08-16T12:30:43.241Z,43.37
2018-08-16T12:31:43.233Z,43.08
2018-08-16T12:32:43.237Z,44.87
2018-08-16T12:33:43.221Z,45.68
2018-08-16T12:34:43.213Z,45.98
2018-08-16T12:35:43.202Z,45.31
2018-08-16T12:36:43.195Z,44.53
2018-08-16T12:37:43.236Z,45.61
2018-08-16T12:38:43.179Z,44.62
2018-08-16T12:39:43.169Z,44.73
2018-08-16T12:40:43.253Z,44.33
2018-08-16T12:41:43.154Z,45.69
2018-08-16T12:42:43.168Z,45.32
2018-08-16T12:43:43.143Z,45.72
2018-08-16T12:44:43.133Z,46.23
2018-08-16T12:45:43.124Z,48.72
2018-08-16T12:46:43.116Z,44.53
2018-08-16T12:47:43.173Z,44.02
2018-08-16T12:48:43.112Z,44.90
2018-08-16T12:49:43.094Z,44.53
2018-08-16T12:50:43.085Z,44.59
2018-08-16T12:51:43.079Z,42.86
2018-08-16T12:52:43.071Z,42.68
2018-08-16T12:53:43.159Z,41.16
2018-08-16T12:54:43.055Z,42.43
2018-08-16T12:55:43.051Z,41.77
2018-08-16T12:56:43.049Z,42.41
2018-08-16T12:57:43.032Z,43.52
2018-08-16T12:58:43.026Z,43.62
2018-08-16T12:59:43.027Z,43.98
2018-08-16T13:00:43.012Z,44.34
2018-08-16T13:01:43.032Z,44.80
2018-08-16T13:02:42.997Z,44.06
2018-08-16T13:03:42.990Z,41.64
2018-08-16T13:04:42.992Z,41.47
2018-08-16T13:05:42.973Z,42.35
2018-08-16T13:06:42.967Z,43.41
2018-08-16T13:07:42.961Z,44.33
2018-08-16T13:08:42.958Z,43.92
2018-08-16T13:09:42.954Z,43.74
2018-08-16T13:10:42.939Z,42.66
2018-08-16T13:11:42.932Z,42.76
2018-08-16T13:12:42.926Z,41.66
2018-08-16T13:13:42.917Z,43.27
2018-08-16T13:14:42.922Z,42.71
2018-08-16T13:15:42.903Z,41.61
2018-08-16T13:16:42.897Z,41.51
2018-08-16T13:17:42.889Z,41.55
2018-08-16T13:18:42.883Z,40.88
2018-08-16T13:19:42.896Z,41.14
2018-08-16T13:20:42.869Z,40.92
2018-08-16T13:21:42.862Z,41.06
2018-08-16T13:22:42.860Z,40.76
2018-08-16T13:23:42.915Z,41.21
2018-08-16T13:24:42.844Z,41.33
2018-08-16T13:25:42.846Z,39.95
2018-08-16T13:26:42.832Z,40.17
2018-08-16T13:27:42.913Z,41.25
2018-08-16T13:28:42.818Z,41.61
2018-08-16T13:29:42.810Z,40.80
2018-08-16T13:30:42.815Z,41.11
2018-08-16T13:31:42.800Z,40.74
2018-08-16T13:32:42.792Z,39.95
2018-08-16T13:33:42.786Z,39.88
2018-08-16T13:34:42.782Z,39.25
2018-08-16T13:35:42.806Z,39.68
2018-08-16T13:36:42.771Z,39.40
2018-08-16T13:37:42.758Z,39.72
2018-08-16T13:38:42.756Z,39.72
2018-08-16T13:39:42.755Z,38.66
2018-08-16T13:40:42.746Z,37.40
2018-08-16T13:41:42.750Z,37.41
2018-08-16T13:42:42.730Z,37.93
2018-08-16T13:43:42.726Z,36.58
2018-08-16T13:44:42.722Z,36.50
2018-08-16T13:45:42.719Z,36.21
2018-08-16T13:46:42.722Z,36.21
2018-08-16T13:47:42.706Z,37.66
2018-08-16T13:48:42.766Z,35.31
2018-08-16T13:49:42.697Z,35.91
2018-08-16T13:50:42.689Z,36.46
2018-08-16T13:51:42.707Z,35.84
2018-08-16T13:52:42.680Z,37.59
2018-08-16T13:53:42.676Z,36.02
2018-08-16T13:54:42.671Z,36.69
2018-08-16T13:55:42.684Z,37.12
2018-08-16T13:56:42.664Z,36.04
2018-08-16T13:57:42.670Z,36.09
2018-08-16T13:58:42.656Z,34.55
2018-08-16T13:59:42.652Z,34.53
2018-08-16T14:00:42.649Z,34.01
2018-08-16T14:01:42.650Z,33.92
2018-08-16T14:02:42.649Z,34.61
2018-08-16T14:03:42.631Z,33.82
2018-08-16T14:04:42.630Z,35.00
2018-08-16T14:05:42.625Z,34.10
2018-08-16T14:06:42.619Z,35.52
2018-08-16T14:07:42.620Z,34.05
2018-08-16T14:08:42.628Z,33.23
2018-08-16T14:09:42.610Z,34.77
2018-08-16T14:10:42.604Z,35.41
2018-08-16T14:11:42.602Z,36.67
2018-08-16T14:12:42.665Z,36.59
2018-08-16T14:13:42.608Z,36.87
2018-08-16T14:14:42.590Z,37.07
2018-08-16T14:15:42.587Z,35.82
2018-08-16T14:16:42.591Z,34.97
2018-08-16T14:17:42.581Z,35.21
2018-08-16T14:18:42.587Z,36.00
2018-08-16T14:19:42.575Z,37.28
2018-08-16T14:20:42.575Z,36.20
2018-08-16T14:21:42.568Z,36.38
2018-08-16T14:22:42.567Z,37.92
2018-08-16T14:23:42.561Z,39.23
2018-08-16T14:24:42.567Z,36.11
2018-08-16T14:25:42.560Z,36.28
2018-08-16T14:26:42.551Z,36.97
2018-08-16T14:27:42.551Z,37.10
2018-08-16T14:28:42.545Z,36.30
2018-08-16T14:29:42.540Z,36.38
2018-08-16T14:30:42.547Z,37.59
2018-08-16T14:31:42.534Z,36.17
2018-08-16T14:32:42.534Z,33.92
2018-08-16T14:33:42.528Z,34.12
2018-08-16T14:34:42.522Z,34.05
2018-08-16T14:35:42.529Z,33.26
2018-08-16T14:36:42.516Z,34.15
2018-08-16T14:37:42.513Z,33.87
2018-08-16T14:38:42.549Z,34.79
2018-08-16T14:39:42.512Z,34.12
2018-08-16T14:40:42.516Z,35.31
2018-08-16T14:41:42.501Z,34.08
2018-08-16T14:42:42.499Z,33.00
2018-08-16T14:43:42.497Z,32.49
2018-08-16T14:44:42.496Z,34.17
2018-08-16T14:45:42.496Z,32.95
2018-08-16T14:46:42.500Z,32.07
2018-08-16T14:47:42.488Z,32.57
2018-08-16T14:48:42.488Z,31.59
2018-08-16T14:49:42.483Z,30.81
2018-08-16T14:50:42.484Z,29.74
2018-08-16T14:51:42.484Z,29.52
2018-08-16T14:52:42.492Z,28.86
2018-08-16T14:53:42.478Z,30.46
2018-08-16T14:54:42.475Z,29.23
2018-08-16T14:55:42.473Z,30.10
2018-08-16T14:56:42.473Z,32.19
2018-08-16T14:57:42.482Z,31.20
2018-08-16T14:58:42.470Z,29.82
2018-08-16T14:59:42.469Z,31.38
2018-08-16T15:00:42.481Z,29.92
2018-08-16T15:01:42.466Z,29.92
2018-08-16T15:02:42.476Z,31.02
2018-08-16T15:03:42.468Z,29.27
2018-08-16T15:04:42.462Z,30.51
2018-08-16T15:05:42.462Z,29.23
2018-08-16T15:06:42.462Z,29.72
2018-08-16T15:07:42.495Z,30.23
2018-08-16T15:08:42.461Z,28.78
2018-08-16T15:09:42.456Z,28.75
2018-08-16T15:10:42.492Z,29.32
2018-08-16T15:11:42.459Z,30.20
2018-08-16T15:12:42.461Z,30.48
2018-08-16T15:13:42.468Z,29.24
2018-08-16T15:14:42.461Z,29.44
2018-08-16T15:15:42.459Z,29.97
2018-08-16T15:16:42.458Z,29.00
2018-08-16T15:17:42.459Z,28.31
2018-08-16T15:18:42.471Z,28.66
2018-08-16T15:19:42.459Z,28.86
2018-08-16T15:20:42.460Z,30.55
2018-08-16T15:21:42.461Z,28.78
2018-08-16T15:22:42.471Z,28.39
2018-08-16T15:23:42.471Z,28.00
2018-08-16T15:24:42.459Z,27.98
2018-08-16T15:25:42.461Z,28.70
2018-08-16T15:26:42.461Z,27.83
2018-08-16T15:27:42.470Z,27.63
2018-08-16T15:28:42.501Z,28.49
2018-08-16T15:29:42.467Z,27.91
2018-08-16T15:30:42.466Z,26.51
2018-08-16T15:31:42.463Z,27.80
2018-08-16T15:32:42.465Z,27.67
2018-08-16T15:33:42.463Z,29.07
2018-08-16T15:34:42.474Z,28.00
2018-08-16T15:35:42.468Z,27.79
2018-08-16T15:36:42.468Z,29.43
2018-08-16T15:37:42.468Z,29.71
2018-08-16T15:38:42.470Z,29.05
2018-08-16T15:39:42.481Z,27.77
2018-08-16T15:40:42.488Z,28.45
2018-08-16T15:41:42.474Z,29.02
2018-08-16T15:42:42.474Z,31.06
2018-08-16T15:43:42.476Z,30.96
2018-08-16T15:44:42.486Z,31.34
2018-08-16T15:45:42.476Z,31.57
2018-08-16T15:46:42.479Z,30.58
2018-08-16T15:47:42.479Z,30.04
2018-08-16T15:48:42.483Z,29.72
2018-08-16T15:49:42.494Z,30.05
2018-08-16T15:50:42.482Z,30.51
2018-08-16T15:51:42.484Z,30.06
2018-08-16T15:52:42.485Z,29.17
2018-08-16T15:53:42.486Z,29.28
2018-08-16T15:54:42.486Z,28.04
2018-08-16T15:55:42.501Z,27.56
2018-08-16T15:56:42.489Z,26.67
2018-08-16T15:57:42.490Z,27.86
2018-08-16T15:58:42.492Z,26.96
2018-08-16T15:59:42.493Z,26.95
2018-08-16T16:00:42.504Z,26.64
2018-08-16T16:01:42.497Z,26.85
2018-08-16T16:02:42.499Z,27.18
2018-08-16T16:03:42.500Z,27.98
2018-08-16T16:04:42.499Z,28.00
2018-08-16T16:05:42.714Z,28.01
2018-08-16T16:06:42.504Z,27.38
2018-08-16T16:07:42.507Z,28.92
2018-08-16T16:08:42.509Z,31.07
2018-08-16T16:09:42.509Z,31.17
2018-08-16T16:10:42.511Z,30.65
2018-08-16T16:11:42.523Z,30.66
2018-08-16T16:12:42.514Z,30.35
2018-08-16T16:13:42.522Z,29.76
2018-08-16T16:14:42.519Z,30.68
2018-08-16T16:15:42.525Z,30.41
2018-08-16T16:16:42.534Z,29.36
2018-08-16T16:17:42.523Z,30.44
2018-08-16T16:18:42.528Z,29.17
2018-08-16T16:19:42.527Z,29.25
2018-08-16T16:20:42.530Z,29.47
2018-08-16T16:21:42.541Z,29.05
2018-08-16T16:22:42.533Z,28.93
2018-08-16T16:23:42.534Z,27.89
2018-08-16T16:24:42.549Z,28.48
2018-08-16T16:25:42.536Z,29.19
2018-08-16T16:26:42.557Z,29.07
2018-08-16T16:27:42.542Z,29.16
2018-08-16T16:28:42.543Z,29.86
2018-08-16T16:29:42.544Z,28.86
2018-08-16T16:30:42.558Z,29.06
2018-08-16T16:31:42.550Z,29.36
2018-08-16T16:32:42.560Z,28.85
2018-08-16T16:33:42.552Z,29.79
2018-08-16T16:34:42.555Z,29.89
2018-08-16T16:35:42.556Z,30.06
2018-08-16T16:36:42.559Z,31.35
2018-08-16T16:37:42.571Z,30.82
2018-08-16T16:38:42.563Z,31.70
2018-08-16T16:39:42.564Z,32.48
2018-08-16T16:40:42.567Z,32.98
2018-08-16T16:41:42.567Z,33.46
2018-08-16T16:42:42.583Z,34.05
2018-08-16T16:43:42.576Z,33.69
2018-08-16T16:44:42.572Z,33.39
2018-08-16T16:45:42.576Z,33.51
2018-08-16T16:46:42.576Z,32.73
2018-08-16T16:47:42.578Z,32.56
2018-08-16T16:48:42.592Z,31.57
2018-08-16T16:49:42.635Z,31.73
2018-08-16T16:50:42.582Z,31.95
2018-08-16T16:51:52.676Z,31.82
2018-08-16T16:52:42.585Z,31.57
2018-08-16T16:53:42.597Z,31.57
2018-08-16T16:54:42.591Z,32.97
2018-08-16T16:55:42.592Z,32.36
2018-08-16T16:56:42.594Z,33.25
2018-08-16T16:57:42.593Z,31.60
2018-08-16T16:58:42.610Z,32.18
2018-08-16T16:59:42.595Z,31.20
2018-08-16T17:00:42.597Z,30.54
2018-08-16T17:01:42.596Z,31.06
2018-08-16T17:02:42.597Z,29.78
2018-08-16T17:03:42.619Z,30.45
2018-08-16T17:04:42.600Z,30.57
2018-08-16T17:05:42.600Z,30.65
2018-08-16T17:06:42.606Z,32.13
2018-08-16T17:07:42.601Z,32.52
2018-08-16T17:08:42.604Z,33.58
2018-08-16T17:09:42.616Z,34.53
2018-08-16T17:10:42.604Z,34.54
2018-08-16T17:11:42.605Z,34.17
2018-08-16T17:12:42.609Z,34.92
2018-08-16T17:13:42.607Z,36.34
2018-08-16T17:14:42.618Z,37.98
2018-08-16T17:15:42.608Z,37.52
2018-08-16T17:16:42.608Z,37.23
2018-08-16T17:17:42.606Z,36.95
2018-08-16T17:18:42.609Z,38.21
2018-08-16T17:19:42.628Z,38.11
2018-08-16T17:20:42.609Z,38.48
2018-08-16T17:21:42.607Z,39.15
2018-08-16T17:22:42.608Z,39.06
2018-08-16T17:23:42.607Z,39.72
2018-08-16T17:24:42.607Z,39.31
2018-08-16T17:25:42.617Z,39.64
2018-08-16T17:26:42.607Z,39.45
2018-08-16T17:27:42.606Z,39.64
2018-08-16T17:28:42.604Z,39.25
2018-08-16T17:29:42.604Z,39.43
2018-08-16T17:30:42.615Z,39.41
2018-08-16T17:31:42.601Z,40.19
2018-08-16T17:32:42.599Z,40.00
2018-08-16T17:33:42.598Z,40.16
2018-08-16T17:34:42.598Z,39.69
2018-08-16T17:35:42.626Z,39.49
2018-08-16T17:36:42.603Z,39.88
2018-08-16T17:37:42.589Z,41.15
2018-08-16T17:38:42.589Z,41.29
2018-08-16T17:39:42.590Z,41.21
2018-08-16T17:40:42.591Z,42.54
2018-08-16T17:41:42.591Z,43.13
2018-08-16T17:42:42.595Z,42.81
2018-08-16T17:43:42.602Z,43.44
2018-08-16T17:44:42.651Z,43.30
2018-08-16T17:45:42.749Z,44.84
2018-08-16T17:46:42.738Z,45.41
2018-08-16T17:47:43.291Z,45.78
2018-08-16T17:48:42.613Z,46.66
2018-08-16T17:49:42.566Z,46.92
2018-08-16T17:50:42.687Z,47.12
2018-08-16T17:51:43.153Z,47.51
2018-08-16T17:52:43.186Z,47.41
2018-08-16T17:53:43.219Z,47.51
2018-08-16T17:54:43.156Z,48.46
2018-08-16T17:55:43.315Z,48.75
2018-08-16T17:56:43.151Z,49.02
2018-08-16T17:57:42.717Z,49.99
2018-08-16T17:58:42.631Z,49.41
2018-08-16T17:59:42.716Z,49.32
2018-08-16T18:00:43.179Z,49.22
2018-08-16T18:01:42.527Z,50.29
2018-08-16T18:02:42.564Z,50.29
2018-08-16T18:03:42.571Z,51.04
2018-08-16T18:04:43.340Z,51.43
2018-08-16T18:05:43.245Z,51.80
2018-08-16T18:06:42.623Z,51.77
2018-08-16T18:07:42.561Z,52.06
2018-08-16T18:08:43.152Z,52.75
2018-08-16T18:09:42.561Z,52.65
2018-08-16T18:10:42.500Z,52.65
2018-08-16T18:11:42.508Z,53.30
2018-08-16T18:12:42.496Z,52.92
2018-08-16T18:13:42.585Z,53.38
2018-08-16T18:14:43.266Z,53.47
2018-08-16T18:15:42.429Z,53.77
2018-08-16T18:16:42.653Z,54.25
2018-08-16T18:17:42.548Z,54.35
2018-08-16T18:18:43.219Z,54.44
2018-08-16T18:19:42.465Z,54.44
2018-08-16T18:20:42.652Z,54.22
2018-08-16T18:21:42.539Z,54.80
2018-08-16T18:22:42.435Z,55.10
2018-08-16T18:23:42.396Z,55.19
2018-08-16T18:24:43.238Z,55.39
2018-08-16T18:25:42.477Z,55.49
2018-08-16T18:26:42.510Z,55.58
2018-08-16T18:27:42.364Z,55.65
2018-08-16T18:28:43.163Z,56.43
2018-08-16T18:29:44.172Z,56.43
2018-08-16T18:30:42.516Z,55.85
2018-08-16T18:31:42.429Z,56.24
2018-08-16T18:32:42.331Z,56.52
2018-08-16T18:33:42.263Z,56.40
2018-08-16T18:34:42.258Z,56.79
2018-08-16T18:35:42.281Z,56.89
2018-08-16T18:36:42.278Z,56.40
2018-08-16T18:37:42.249Z,57.28
2018-08-16T18:38:42.228Z,57.28
2018-08-16T18:39:42.238Z,57.57
2018-08-16T18:40:42.209Z,57.47
2018-08-16T18:41:42.318Z,57.34
2018-08-16T18:42:42.271Z,57.73
2018-08-16T18:43:42.305Z,58.51
2018-08-16T18:44:42.316Z,58.61
2018-08-16T18:45:43.687Z,59.38
2018-08-16T18:46:43.184Z,58.12
2018-08-16T18:47:44.673Z,58.61
2018-08-16T18:48:42.741Z,59.00
2018-08-16T18:49:42.122Z,59.36
2018-08-16T18:50:42.769Z,59.36
2018-08-16T18:51:42.147Z,59.16
2018-08-16T18:52:42.213Z,59.45
2018-08-16T18:53:42.712Z,59.84
2018-08-16T18:54:42.176Z,59.74
2018-08-16T18:55:42.075Z,60.03
2018-08-16T18:56:43.172Z,59.64
2018-08-16T18:57:42.072Z,60.71
2018-08-16T18:58:42.119Z,60.42
2018-08-16T18:59:42.253Z,60.78
2018-08-16T19:00:42.075Z,60.97
2018-08-16T19:01:42.045Z,60.49
2018-08-16T19:02:46.697Z,61.00
2018-08-16T19:03:41.998Z,61.07
2018-08-16T19:04:42.248Z,60.58
2018-08-16T19:05:42.193Z,61.07
2018-08-16T19:06:43.700Z,61.75
2018-08-16T19:07:42.080Z,62.49
2018-08-16T19:08:42.025Z,61.75
2018-08-16T19:09:41.938Z,61.82
2018-08-16T19:10:41.906Z,62.40
2018-08-16T19:11:41.898Z,62.40
2018-08-16T19:12:41.888Z,62.59
2018-08-16T19:13:41.877Z,62.49
2018-08-16T19:14:41.874Z,62.30
2018-08-16T19:15:41.866Z,61.62
2018-08-16T19:16:41.850Z,62.49
2018-08-16T19:17:41.832Z,61.91
2018-08-16T19:18:41.857Z,62.20
2018-08-16T19:19:41.813Z,62.30
2018-08-16T19:20:41.821Z,62.49
2018-08-16T19:21:41.789Z,62.98
2018-08-16T19:22:41.779Z,62.49
2018-08-16T19:23:41.773Z,62.79
2018-08-16T19:24:41.762Z,62.79
2018-08-16T19:25:41.758Z,63.14
2018-08-16T19:26:41.733Z,63.34
2018-08-16T19:27:41.725Z,64.11
2018-08-16T19:28:41.716Z,64.11
2018-08-16T19:29:41.787Z,64.20
2018-08-16T19:30:41.714Z,63.72
2018-08-16T19:31:41.680Z,63.72
2018-08-16T19:32:41.676Z,63.92
2018-08-16T19:33:41.660Z,64.11
2018-08-16T19:34:41.656Z,64.59
2018-08-16T19:35:41.711Z,64.50
2018-08-16T19:36:41.629Z,64.79
2018-08-16T19:37:41.615Z,64.11
2018-08-16T19:38:41.605Z,64.40
2018-08-16T19:39:41.594Z,65.63
2018-08-16T19:40:41.584Z,65.43
2018-08-16T19:41:41.582Z,66.30
2018-08-16T19:42:41.562Z,66.02
2018-08-16T19:43:41.549Z,66.02
2018-08-16T19:44:41.535Z,66.78
2018-08-16T19:45:41.526Z,66.30
2018-08-16T19:46:41.528Z,67.14
2018-08-16T19:47:41.504Z,67.14
2018-08-16T19:48:41.493Z,68.21
2018-08-16T19:49:41.481Z,68.69
2018-08-16T19:50:41.472Z,68.88
2018-08-16T19:51:41.480Z,69.27
2018-08-16T19:52:41.447Z,70.24
2018-08-16T19:53:41.436Z,70.30
2018-08-16T19:54:41.428Z,70.50
2018-08-16T19:55:41.415Z,70.10
2018-08-16T19:56:41.403Z,70.68
2018-08-16T19:57:41.402Z,71.26
2018-08-16T19:58:41.379Z,71.08
2018-08-16T19:59:41.368Z,70.98
2018-08-16T20:00:41.356Z,71.72
2018-08-16T20:01:41.382Z,72.20
2018-08-16T20:02:41.360Z,72.58
2018-08-16T20:03:41.367Z,73.55
2018-08-16T20:04:41.338Z,73.46
2018-08-16T20:05:41.335Z,73.74
2018-08-16T20:06:41.292Z,74.29
2018-08-16T20:07:41.305Z,74.19
2018-08-16T20:08:41.293Z,74.48
2018-08-16T20:09:41.258Z,74.48
2018-08-16T20:10:41.242Z,74.96
2018-08-16T20:11:41.232Z,75.26
2018-08-16T20:12:41.228Z,75.64
2018-08-16T20:13:41.214Z,75.45
2018-08-16T20:14:41.193Z,74.68
2018-08-16T20:15:41.182Z,75.45
2018-08-16T20:16:41.170Z,74.96
2018-08-16T20:17:41.169Z,75.26
2018-08-16T20:18:41.146Z,75.06
2018-08-16T20:19:41.157Z,75.26
2018-08-16T20:20:41.137Z,75.06
2018-08-16T20:21:41.113Z,76.03
2018-08-16T20:22:41.117Z,76.03
2018-08-16T20:23:50.294Z,76.61
2018-08-16T20:24:41.075Z,76.95
2018-08-16T20:25:41.061Z,77.44
2018-08-16T20:26:41.049Z,77.73
2018-08-16T20:27:41.035Z,77.92
2018-08-16T20:28:41.035Z,78.02
2018-08-16T20:29:41.011Z,78.50
2018-08-16T20:30:41.002Z,78.50
2018-08-16T20:31:40.988Z,79.47
2018-08-16T20:32:40.974Z,79.81
2018-08-16T20:33:40.974Z,79.81
2018-08-16T20:34:40.950Z,79.62
2018-08-16T20:35:40.943Z,79.52
2018-08-16T20:36:40.925Z,80.10
2018-08-16T20:37:40.912Z,80.97
2018-08-16T20:38:40.916Z,80.58
2018-08-16T20:39:40.889Z,80.58
2018-08-16T20:40:40.875Z,81.65
2018-08-16T20:41:40.866Z,81.99
2018-08-16T20:42:40.851Z,82.28
2018-08-16T20:43:40.838Z,82.48
2018-08-16T20:44:40.836Z,82.48
2018-08-16T20:45:40.815Z,83.05
2018-08-16T20:46:40.801Z,83.53
2018-08-16T20:47:40.791Z,82.96
2018-08-16T20:48:40.776Z,83.73
2018-08-16T20:49:40.772Z,85.23
2018-08-16T20:50:40.749Z,86.39
2018-08-16T20:51:40.739Z,86.39
2018-08-16T20:52:40.729Z,87.06
2018-08-16T20:53:40.715Z,87.83
2018-08-16T20:54:40.711Z,89.47
2018-08-16T20:55:40.689Z,90.63
2018-08-16T20:56:40.679Z,91.06
2018-08-16T20:57:40.663Z,90.97
2018-08-16T20:58:40.651Z,91.26
2018-08-16T20:59:40.660Z,92.22
2018-08-16T21:00:40.721Z,92.90
2018-08-16T21:01:40.613Z,93.09
2018-08-16T21:02:40.599Z,92.90
2018-08-16T21:03:40.588Z,92.22
2018-08-16T21:04:40.625Z,92.22
2018-08-16T21:05:40.572Z,91.55
2018-08-16T21:06:40.548Z,91.93
2018-08-16T21:07:40.535Z,91.83
2018-08-16T21:08:40.523Z,92.51
2018-08-16T21:09:40.526Z,92.80
2018-08-16T21:10:40.498Z,92.90
2018-08-16T21:11:40.484Z,92.80
2018-08-16T21:12:40.516Z,93.96
2018-08-16T21:13:40.458Z,93.86
2018-08-16T21:14:40.467Z,93.28
2018-08-16T21:15:40.434Z,93.96
2018-08-16T21:16:40.418Z,94.44
2018-08-16T21:17:40.407Z,96.27
2018-08-16T21:18:40.395Z,96.12
2018-08-16T21:19:40.381Z,97.86
2018-08-16T21:20:40.423Z,97.76
2018-08-16T21:21:40.385Z,97.76
2018-08-16T21:22:40.344Z,98.72
2018-08-16T21:23:40.330Z,98.44
2018-08-16T21:24:40.317Z,99.30
2018-08-16T21:25:40.313Z,99.99
2018-08-16T21:26:40.289Z,99.99
2018-08-16T21:27:40.335Z,99.99
2018-08-16T21:28:40.265Z,99.99
2018-08-16T21:29:40.258Z,99.99
2018-08-16T21:30:40.380Z,99.99
2018-08-16T21:31:40.225Z,99.99
2018-08-16T21:32:40.210Z,99.99
2018-08-16T21:33:40.198Z,99.99
2018-08-16T21:34:40.263Z,99.99
2018-08-16T21:35:40.184Z,99.99
2018-08-16T21:36:40.158Z,99.99
2018-08-16T21:37:40.149Z,99.99
2018-08-16T21:38:40.130Z,99.99
2018-08-16T21:39:40.119Z,99.99
2018-08-16T21:40:40.125Z,99.99
2018-08-16T21:41:40.092Z,99.99
2018-08-16T21:42:40.078Z,99.99
2018-08-16T21:43:40.068Z,99.99
2018-08-16T21:44:40.051Z,99.99
2018-08-16T21:45:40.039Z,99.99
2018-08-16T21:46:40.037Z,99.99
2018-08-16T21:47:40.012Z,99.99
2018-08-16T21:48:39.998Z,99.99
2018-08-16T21:49:39.982Z,99.99
2018-08-16T21:50:39.969Z,99.99
2018-08-16T21:51:39.967Z,99.99
2018-08-16T21:52:39.944Z,99.99
2018-08-16T21:53:39.928Z,99.99
2018-08-16T21:54:39.918Z,99.99
2018-08-16T21:55:39.905Z,99.99
2018-08-16T21:56:39.903Z,99.99
2018-08-16T21:57:39.877Z,99.99
2018-08-16T21:58:39.864Z,99.99
2018-08-16T21:59:39.849Z,99.99
2018-08-16T22:00:39.838Z,99.99
2018-08-16T22:01:39.819Z,99.99
2018-08-16T22:02:39.826Z,99.99
2018-08-16T22:03:39.796Z,99.99
2018-08-16T22:04:39.781Z,99.99
2018-08-16T22:05:39.795Z,99.99
2018-08-16T22:06:39.753Z,99.99
2018-08-16T22:07:39.753Z,99.99
2018-08-16T22:08:39.724Z,99.99
2018-08-16T22:09:39.710Z,99.99
2018-08-16T22:10:39.700Z,99.99
2018-08-16T22:11:39.684Z,99.99
2018-08-16T22:12:39.687Z,99.99
2018-08-16T22:13:39.659Z,99.99
2018-08-16T22:14:39.643Z,99.99
2018-08-16T22:15:39.630Z,99.99
2018-08-16T22:16:39.616Z,99.99
2018-08-16T22:17:39.620Z,99.99
2018-08-16T22:18:39.588Z,99.99
2018-08-16T22:19:39.573Z,99.99
2018-08-16T22:20:39.558Z,99.99
2018-08-16T22:21:39.549Z,99.99
2018-08-16T22:22:39.531Z,99.99
2018-08-16T22:23:39.529Z,99.99
2018-08-16T22:24:39.509Z,99.99
2018-08-16T22:25:39.491Z,99.99
2018-08-16T22:26:39.479Z,99.99
2018-08-16T22:27:39.463Z,99.99
2018-08-16T22:28:39.466Z,99.99
2018-08-16T22:29:39.435Z,99.99
2018-08-16T22:30:39.420Z,99.99
2018-08-16T22:31:39.406Z,99.99
2018-08-16T22:32:39.393Z,99.99
2018-08-16T22:33:39.382Z,99.99
2018-08-16T22:34:39.376Z,99.99
2018-08-16T22:35:39.353Z,99.99
2018-08-16T22:36:39.391Z,99.99
2018-08-16T22:37:39.323Z,99.99
2018-08-16T22:38:39.305Z,99.99
2018-08-16T22:39:39.306Z,99.99
2018-08-16T22:40:39.283Z,99.99
2018-08-16T22:41:39.269Z,99.99
2018-08-16T22:42:39.251Z,99.99
2018-08-16T22:43:39.239Z,99.99
2018-08-16T22:44:39.241Z,99.99
2018-08-16T22:45:39.209Z,99.99
2018-08-16T22:46:39.196Z,99.99
2018-08-16T22:47:39.182Z,99.99
2018-08-16T22:48:39.166Z,99.99
2018-08-16T22:49:39.180Z,99.99
2018-08-16T22:50:39.139Z,99.99
2018-08-16T22:51:39.182Z,99.99
2018-08-16T22:52:39.109Z,99.99
2018-08-16T22:53:39.095Z,99.99
2018-08-16T22:54:39.082Z,99.99
2018-08-16T22:55:39.077Z,99.99
2018-08-16T22:56:39.054Z,99.99
2018-08-16T22:57:39.036Z,99.99
2018-08-16T22:58:39.025Z,99.99
2018-08-16T22:59:39.014Z,99.99
2018-08-16T23:00:39.011Z,99.99
2018-08-16T23:01:38.984Z,99.99
2018-08-16T23:02:38.967Z,99.99
2018-08-16T23:03:38.953Z,99.99
2018-08-16T23:04:38.942Z,99.99
2018-08-16T23:05:38.919Z,99.99
2018-08-16T23:06:38.917Z,99.99
2018-08-16T23:07:38.898Z,99.99
2018-08-16T23:08:38.880Z,99.99
2018-08-16T23:09:38.868Z,99.99
2018-08-16T23:10:38.849Z,99.99
2018-08-16T23:11:38.846Z,99.99
2018-08-16T23:12:38.825Z,99.99
2018-08-16T23:13:38.810Z,99.99
2018-08-16T23:14:38.795Z,99.99
2018-08-16T23:15:38.780Z,99.99
2018-08-16T23:16:38.775Z,99.99
2018-08-16T23:17:38.755Z,99.99
2018-08-16T23:18:38.737Z,99.99
2018-08-16T23:19:38.723Z,99.99
2018-08-16T23:20:38.706Z,99.99
2018-08-16T23:21:38.703Z,99.99
2018-08-16T23:22:38.681Z,99.99
2018-08-16T23:23:38.665Z,99.99
2018-08-16T23:24:38.648Z,99.99
2018-08-16T23:25:38.634Z,99.99
2018-08-16T23:26:38.637Z,99.99
2018-08-16T23:27:38.606Z,99.99
2018-08-16T23:28:38.591Z,99.99
2018-08-16T23:29:38.577Z,99.99
2018-08-16T23:30:38.559Z,99.99
2018-08-16T23:31:38.548Z,99.99
2018-08-16T23:32:38.542Z,99.99
2018-08-16T23:33:38.516Z,99.99
2018-08-16T23:34:38.502Z,99.99
2018-08-16T23:35:38.487Z,99.99
2018-08-16T23:36:38.475Z,99.99
2018-08-16T23:37:38.477Z,99.99
2018-08-16T23:38:38.445Z,99.99
2018-08-16T23:39:38.428Z,99.99
2018-08-16T23:40:38.416Z,99.99
2018-08-16T23:41:38.401Z,99.99
2018-08-16T23:42:38.401Z,99.99
2018-08-16T23:43:38.370Z,99.99
2018-08-16T23:44:38.356Z,99.99
2018-08-16T23:45:38.339Z,99.99
2018-08-16T23:46:38.326Z,99.99
2018-08-16T23:47:38.323Z,99.99
2018-08-16T23:48:38.300Z,99.99
2018-08-16T23:49:38.282Z,99.99
2018-08-16T23:50:38.268Z,99.99
2018-08-16T23:51:38.253Z,99.99
2018-08-16T23:52:38.258Z,99.99
2018-08-16T23:53:38.225Z,99.99
2018-08-16T23:54:38.208Z,99.99
2018-08-16T23:55:38.190Z,99.99
2018-08-16T23:56:38.182Z,99.99
2018-08-16T23:57:38.163Z,99.99
2018-08-16T23:58:38.154Z,99.99
2018-08-16T23:59:38.134Z,99.99
